Time;durP1;ratioP1;P1;durP2;ratioP2;P2;SDS_P1;SDS_P2;PMS_P1;PMS_P2;Temp;Humidity;BMP_temperature;BMP_pressure;BME280_temperature;BME280_humidity;BME280_pressure;Samples;Min_cycle;Max_cycle;Signal;HPM_P1;HPM_P2
2021/06/16 00:02:16;;;;;;;3.35;1.65;;;;;;;16.24;77.70;98325.47;5075091;28;20024;-87
2021/06/16 00:04:41;;;;;;;2.55;2.10;;;;;;;16.23;77.81;98319.28;5076189;28;20043;-85
2021/06/16 00:07:07;;;;;;;2.00;1.83;;;;;;;16.25;77.93;98322.44;5074941;28;20035;-88
2021/06/16 00:09:32;;;;;;;1.63;1.52;;;;;;;16.27;77.63;98316.72;5075439;28;20040;-84
2021/06/16 00:11:58;;;;;;;1.23;1.23;;;;;;;16.27;77.86;98314.00;5075457;28;20101;-86
2021/06/16 00:14:24;;;;;;;2.03;1.70;;;;;;;16.26;77.43;98312.44;5074940;28;20028;-85
2021/06/16 00:16:49;;;;;;;2.30;1.52;;;;;;;16.27;77.67;98311.31;5075070;28;20483;-83
2021/06/16 00:19:15;;;;;;;1.90;1.80;;;;;;;16.27;77.50;98308.63;5075853;28;20035;-86
2021/06/16 00:21:41;;;;;;;2.67;1.40;;;;;;;16.27;77.37;98304.03;5081117;28;20027;-85
2021/06/16 00:24:08;;;;;;;1.67;1.58;;;;;;;16.27;77.00;98306.72;5094300;28;20062;-85
2021/06/16 00:26:34;;;;;;;1.70;1.60;;;;;;;16.28;76.67;98294.00;5093132;28;20402;-84
2021/06/16 00:28:59;;;;;;;5.32;1.67;;;;;;;16.29;76.56;98301.00;5094980;28;20027;-86
2021/06/16 00:31:25;;;;;;;1.60;1.08;;;;;;;16.30;76.64;98297.94;5094738;28;20042;-86
2021/06/16 00:33:50;;;;;;;3.67;1.50;;;;;;;16.32;76.34;98295.72;5083681;28;20032;-89
2021/06/16 00:36:16;;;;;;;1.65;1.55;;;;;;;16.35;75.78;98296.19;5093354;28;20031;-84
2021/06/16 00:38:42;;;;;;;4.35;2.53;;;;;;;16.39;76.26;98295.16;5094623;28;20032;-85
2021/06/16 00:41:07;;;;;;;1.40;1.30;;;;;;;16.40;76.41;98290.56;5094497;28;20467;-82
2021/06/16 00:43:33;;;;;;;1.50;1.40;;;;;;;16.43;76.06;98290.69;5094670;28;20036;-83
2021/06/16 00:45:58;;;;;;;1.85;1.52;;;;;;;16.43;75.64;98290.69;5093959;28;20023;-85
2021/06/16 00:48:24;;;;;;;2.42;1.67;;;;;;;16.48;75.79;98293.19;5084331;28;20498;-86
2021/06/16 00:50:50;;;;;;;1.63;1.17;;;;;;;16.49;75.09;98288.59;5088142;28;20059;-87
2021/06/16 00:53:15;;;;;;;1.50;1.40;;;;;;;16.54;75.10;98288.38;5094234;28;20036;-85
2021/06/16 00:55:42;;;;;;;4.53;1.23;;;;;;;16.55;74.89;98287.25;5094183;28;20024;-80
2021/06/16 00:58:11;;;;;;;3.05;1.67;;;;;;;16.58;74.44;98293.88;5082584;28;20036;-85
2021/06/16 01:00:52;;;;;;;2.80;1.67;;;;;;;16.60;74.91;98278.94;5074204;28;20020;-87
2021/06/16 01:03:55;;;;;;;4.88;1.50;;;;;;;16.63;74.70;98289.03;5084608;28;20028;-88
2021/06/16 01:06:47;;;;;;;1.42;1.33;;;;;;;16.64;74.34;98290.63;5050319;28;20406;-90
2021/06/16 01:09:28;;;;;;;1.33;1.23;;;;;;;16.67;73.96;98288.38;5073809;28;20463;-85
2021/06/16 01:12:05;;;;;;;1.70;1.60;;;;;;;16.69;73.95;98286.16;5082715;28;20587;-84
2021/06/16 01:14:36;;;;;;;2.70;1.30;;;;;;;16.71;73.70;98287.38;5073706;28;20499;-87
2021/06/16 01:17:04;;;;;;;4.13;1.83;;;;;;;16.74;73.25;98296.72;5073632;28;20040;-83
2021/06/16 01:20:01;;;;;;;;;;;;;;;16.77;72.85;98291.44;5074103;28;20038;-83
2021/06/16 01:22:48;;;;;;;3.33;1.80;;;;;;;16.80;72.92;98292.69;5073356;28;19912;-84
2021/06/16 01:25:24;;;;;;;1.88;1.02;;;;;;;16.83;72.97;98299.31;5073231;28;20083;-82
2021/06/16 01:27:52;;;;;;;2.08;1.58;;;;;;;16.84;72.97;98315.19;5073563;28;20115;-85
2021/06/16 01:30:18;;;;;;;4.55;1.50;;;;;;;16.85;73.31;98318.69;5073373;28;20114;-84
2021/06/16 01:32:46;;;;;;;2.50;1.50;;;;;;;16.83;73.70;98321.69;5073943;28;20511;-85
2021/06/16 01:35:12;;;;;;;8.57;1.85;;;;;;;16.80;73.85;98317.75;5073499;28;20027;-85
2021/06/16 01:37:39;;;;;;;3.25;1.92;;;;;;;16.79;73.76;98313.47;5073257;28;20093;-86
2021/06/16 01:40:05;;;;;;;4.43;1.73;;;;;;;16.80;73.52;98315.06;5073080;28;20031;-86
2021/06/16 01:42:32;;;;;;;4.05;1.55;;;;;;;16.78;73.70;98300.31;5080601;28;20399;-85
2021/06/16 01:44:59;;;;;;;1.70;1.60;;;;;;;16.77;73.69;98291.44;5073351;28;20032;-85
2021/06/16 01:47:24;;;;;;;1.92;1.83;;;;;;;16.77;73.89;98291.44;5073108;28;20032;-86
2021/06/16 01:49:55;;;;;;;2.00;1.30;;;;;;;16.79;74.05;98285.69;5073249;28;20101;-86
2021/06/16 01:52:24;;;;;;;2.97;1.25;;;;;;;16.78;74.23;98289.53;5072810;28;20028;-86
2021/06/16 01:54:51;;;;;;;1.90;1.50;;;;;;;16.78;74.08;98297.63;5073134;28;20024;-87
2021/06/16 01:57:17;;;;;;;3.80;1.80;;;;;;;16.76;74.37;98307.97;5084289;28;20474;-84
2021/06/16 01:59:45;;;;;;;4.03;1.55;;;;;;;16.74;74.61;98305.59;5090789;28;20114;-78
2021/06/16 02:02:11;;;;;;;3.03;1.55;;;;;;;16.74;74.84;98305.59;5093207;28;20055;-81
2021/06/16 02:04:37;;;;;;;1.23;1.17;;;;;;;16.74;74.34;98307.53;5093288;28;20442;-86
2021/06/16 02:07:14;;;;;;;4.60;1.88;;;;;;;16.73;74.23;98308.66;5093199;28;20096;-83
2021/06/16 02:09:40;;;;;;;3.70;1.98;;;;;;;16.71;74.68;98306.28;5093445;28;20023;-85
2021/06/16 02:12:10;;;;;;;3.20;1.95;;;;;;;16.72;74.66;98307.06;5073422;28;20119;-82
2021/06/16 02:14:37;;;;;;;1.55;1.45;;;;;;;16.69;74.76;98302.34;5072698;28;20043;-83
2021/06/16 02:17:12;;;;;;;3.75;1.60;;;;;;;16.72;74.44;98310.56;5073137;28;20040;-81
2021/06/16 02:19:40;;;;;;;3.65;1.75;;;;;;;16.74;74.12;98315.63;5073220;28;20085;-83
2021/06/16 02:22:07;;;;;;;2.33;1.65;;;;;;;16.72;74.17;98315.16;5073013;28;20111;-82
2021/06/16 02:24:34;;;;;;;2.08;1.95;;;;;;;16.76;73.83;98314.16;5072344;28;20055;-83
2021/06/16 02:27:00;;;;;;;3.85;1.65;;;;;;;16.76;74.13;98306.06;5080707;28;20030;-82
2021/06/16 02:29:28;;;;;;;2.22;1.58;;;;;;;16.78;74.25;98311.94;5072602;28;20059;-86
2021/06/16 02:31:53;;;;;;;3.53;1.55;;;;;;;16.79;73.72;98316.19;5072746;28;20091;-82
2021/06/16 02:34:23;;;;;;;2.83;2.05;;;;;;;16.81;73.81;98305.84;5074117;28;20651;-79
2021/06/16 02:36:50;;;;;;;1.77;1.65;;;;;;;16.82;73.50;98312.03;5092981;28;20422;-80
2021/06/16 02:39:30;;;;;;;4.00;1.90;;;;;;;16.83;73.50;98300.09;5092339;28;20123;-83
2021/06/16 02:41:56;;;;;;;2.00;1.90;;;;;;;16.85;73.08;98307.88;5072857;28;20021;-84
2021/06/16 02:44:24;;;;;;;1.40;1.30;;;;;;;16.85;73.05;98300.56;5072573;28;20089;-86
2021/06/16 02:46:53;;;;;;;3.05;1.60;;;;;;;16.89;73.12;98306.06;5072822;28;20174;-85
2021/06/16 02:49:28;;;;;;;1.88;1.77;;;;;;;16.91;73.17;98307.31;5072346;28;20036;-85
2021/06/16 02:51:54;;;;;;;4.57;2.35;;;;;;;16.94;72.67;98316.69;5073260;28;20107;-86
2021/06/16 02:54:20;;;;;;;3.13;2.83;;;;;;;16.98;72.89;98306.00;5080744;28;20505;-83
2021/06/16 02:56:46;;;;;;;3.15;2.30;;;;;;;16.99;73.00;98313.78;5092933;28;20023;-80
2021/06/16 02:59:14;;;;;;;2.95;2.08;;;;;;;17.01;72.84;98316.91;5074766;28;20055;-80
2021/06/16 03:01:41;;;;;;;2.88;1.70;;;;;;;17.04;72.80;98315.44;5091020;28;20089;-85
2021/06/16 03:04:07;;;;;;;2.90;1.80;;;;;;;17.05;72.59;98334.03;5072579;28;20032;-83
2021/06/16 03:06:33;;;;;;;1.90;1.70;;;;;;;17.06;72.72;98319.38;5072316;28;20391;-85
2021/06/16 03:09:00;;;;;;;3.05;1.67;;;;;;;17.06;72.54;98329.41;5083600;28;20055;-81
2021/06/16 03:11:30;;;;;;;1.73;1.60;;;;;;;17.06;72.19;98332.91;5096240;28;20024;-82
2021/06/16 03:13:55;;;;;;;4.45;2.00;;;;;;;17.07;72.10;98339.88;5096398;28;20027;-82
2021/06/16 03:16:21;;;;;;;3.38;1.65;;;;;;;17.08;72.34;98346.88;5096160;28;20487;-79
2021/06/16 03:18:48;;;;;;;2.20;1.63;;;;;;;17.12;71.91;98357.78;5084627;28;20031;-81
2021/06/16 03:21:15;;;;;;;2.30;2.05;;;;;;;17.13;71.84;98362.84;5075845;28;20656;-82
2021/06/16 03:23:42;;;;;;;3.45;1.83;;;;;;;17.15;71.52;98364.44;5075750;28;20028;-82
2021/06/16 03:26:08;;;;;;;3.00;2.17;;;;;;;17.19;71.33;98354.53;5075756;28;20028;-84
2021/06/16 03:28:35;;;;;;;1.70;1.60;;;;;;;17.21;71.65;98360.38;5076416;28;20035;-82
2021/06/16 03:31:02;;;;;;;2.70;1.70;;;;;;;17.20;71.74;98375.81;5096136;28;20035;-83
2021/06/16 03:33:28;;;;;;;3.00;2.15;;;;;;;17.21;71.60;98372.00;5084326;28;20483;-81
2021/06/16 03:35:53;;;;;;;7.25;2.22;;;;;;;17.23;71.51;98367.03;5075989;28;20036;-81
2021/06/16 03:38:19;;;;;;;3.03;1.80;;;;;;;17.21;71.63;98361.19;5075271;28;20024;-82
2021/06/16 03:40:48;;;;;;;2.05;1.50;;;;;;;17.24;71.19;98365.91;5083967;28;20596;-83
2021/06/16 03:43:15;;;;;;;2.63;2.00;;;;;;;17.23;71.54;98368.94;5092411;28;20109;-85
2021/06/16 03:45:42;;;;;;;5.35;2.30;;;;;;;17.24;71.17;98374.00;5079059;28;20076;-89
2021/06/16 03:48:09;;;;;;;3.10;1.73;;;;;;;17.25;71.41;98372.09;5092090;28;20039;-89
2021/06/16 03:50:37;;;;;;;4.72;1.77;;;;;;;17.25;71.24;98372.88;5095423;28;20573;-88
2021/06/16 03:53:03;;;;;;;2.85;2.03;;;;;;;17.27;71.08;98369.84;5096200;28;20034;-90
2021/06/16 03:55:30;;;;;;;11.93;6.63;;;;;;;17.28;71.34;98366.00;5096477;28;20027;-90
2021/06/16 03:57:55;;;;;;;3.28;2.40;;;;;;;17.28;71.16;98366.00;5082515;28;20085;-83
2021/06/16 04:00:22;;;;;;;2.67;1.88;;;;;;;17.29;71.45;98359.50;5083423;28;20028;-84
2021/06/16 04:02:48;;;;;;;3.55;2.10;;;;;;;17.27;70.98;98365.25;5075052;28;20036;-84
2021/06/16 04:05:16;;;;;;;1.80;1.70;;;;;;;17.29;71.15;98370.28;5075049;28;20035;-85
2021/06/16 04:07:46;;;;;;;2.38;2.17;;;;;;;17.29;70.80;98373.78;5074688;28;20425;-89
2021/06/16 04:10:13;;;;;;;4.22;3.20;;;;;;;17.32;70.83;98371.53;5077762;28;20117;-90
2021/06/16 04:12:38;;;;;;;5.07;2.40;;;;;;;17.33;70.70;98376.59;5080386;28;20028;-90
2021/06/16 04:15:05;;;;;;;2.28;2.05;;;;;;;17.34;70.76;98372.78;5074989;28;20028;-83
2021/06/16 04:17:30;;;;;;;2.67;1.90;;;;;;;17.37;71.21;98384.81;5074601;28;20048;-79
2021/06/16 04:19:56;;;;;;;2.30;2.10;;;;;;;17.38;71.77;98392.59;5082220;28;20074;-85
2021/06/16 04:22:21;;;;;;;3.03;1.98;;;;;;;17.39;71.26;98385.28;5082526;28;20050;-84
2021/06/16 04:24:47;;;;;;;2.67;2.15;;;;;;;17.40;71.66;98387.63;5081039;28;20101;-77
2021/06/16 04:27:13;;;;;;;3.10;2.13;;;;;;;17.40;71.40;98387.63;5095137;28;20028;-77
2021/06/16 04:29:40;;;;;;;4.97;2.30;;;;;;;17.39;71.66;98393.38;5078512;28;20281;-78
2021/06/16 04:32:08;;;;;;;2.55;2.13;;;;;;;17.38;71.26;98397.22;5105086;28;20456;-78
2021/06/16 04:34:34;;;;;;;2.17;1.97;;;;;;;17.40;70.98;98401.16;5094196;28;20043;-78
2021/06/16 04:36:59;;;;;;;2.08;1.88;;;;;;;17.42;71.63;98398.13;5093931;28;20278;-76
2021/06/16 04:39:24;;;;;;;2.17;1.98;;;;;;;17.41;71.37;98404.66;5074049;28;20445;-77
2021/06/16 04:41:50;;;;;;;3.33;2.25;;;;;;;17.43;71.70;98407.78;5074334;28;20032;-76
2021/06/16 04:44:15;;;;;;;6.70;2.30;;;;;;;17.42;71.41;98398.91;5092048;28;20043;-75
2021/06/16 04:46:41;;;;;;;4.93;2.53;;;;;;;17.43;71.53;98399.69;5091736;28;20055;-75
2021/06/16 04:49:06;;;;;;;3.40;2.58;;;;;;;17.43;71.33;98397.78;5091964;28;20045;-76
2021/06/16 04:51:32;;;;;;;2.55;1.95;;;;;;;17.46;71.23;98404.44;5073935;28;20031;-77
2021/06/16 04:53:57;;;;;;;4.07;2.05;;;;;;;17.46;71.77;98396.31;5092323;28;20023;-77
2021/06/16 04:56:23;;;;;;;5.10;2.65;;;;;;;17.48;71.62;98394.06;5092018;28;20039;-77
2021/06/16 04:58:48;;;;;;;4.07;1.95;;;;;;;17.47;71.72;98391.69;5091859;28;20020;-78
2021/06/16 05:01:14;;;;;;;2.15;1.98;;;;;;;17.46;71.86;98392.84;5091791;28;20028;-77
2021/06/16 05:03:39;;;;;;;2.72;2.00;;;;;;;17.48;71.56;98390.56;5091908;28;20027;-77
2021/06/16 05:06:05;;;;;;;3.83;2.22;;;;;;;17.47;71.56;98395.19;5091994;28;20020;-77
2021/06/16 05:08:30;;;;;;;5.97;2.30;;;;;;;17.46;71.99;98395.53;5073469;28;20475;-77
2021/06/16 05:10:56;;;;;;;4.65;2.75;;;;;;;17.46;71.32;98401.72;5091988;28;20028;-76
2021/06/16 05:13:26;;;;;;;3.65;2.20;;;;;;;17.48;71.23;98406.78;5091715;28;20032;-77
2021/06/16 05:15:53;;;;;;;5.90;2.63;;;;;;;17.51;71.51;98406.13;5091949;28;20046;-76
2021/06/16 05:18:19;;;;;;;2.95;2.65;;;;;;;17.53;71.12;98409.28;5091817;28;20020;-76
2021/06/16 05:20:45;;;;;;;4.38;2.50;;;;;;;17.53;71.38;98423.59;5091915;28;20081;-76
2021/06/16 05:23:11;;;;;;;3.30;2.10;;;;;;;17.53;71.53;98420.88;5091396;28;20028;-76
2021/06/16 05:25:36;;;;;;;2.50;2.30;;;;;;;17.56;71.74;98427.53;5090985;28;20105;-75
2021/06/16 05:28:02;;;;;;;3.25;2.53;;;;;;;17.59;71.44;98424.16;5091610;28;20023;-75
2021/06/16 05:30:28;;;;;;;3.13;2.80;;;;;;;17.59;71.21;98422.22;5091355;28;20043;-75
2021/06/16 05:32:53;;;;;;;3.40;2.45;;;;;;;17.60;71.18;98425.72;5091115;28;20024;-75
2021/06/16 05:35:19;;;;;;;4.00;2.63;;;;;;;17.66;71.35;98434.41;5091442;28;20032;-75
2021/06/16 05:37:46;;;;;;;3.25;2.35;;;;;;;17.69;70.86;98445.31;5091714;28;20490;-77
2021/06/16 05:40:13;;;;;;;3.05;2.45;;;;;;;17.72;70.96;98446.56;5073349;28;20031;-75
2021/06/16 05:42:38;;;;;;;2.28;2.08;;;;;;;17.74;71.00;98447.78;5091442;28;20098;-75
2021/06/16 05:45:05;;;;;;;2.95;2.55;;;;;;;17.77;71.15;98435.50;5091429;28;20105;-77
2021/06/16 05:47:31;;;;;;;2.25;2.03;;;;;;;17.77;71.43;98438.22;5090893;28;20020;-77
2021/06/16 05:49:56;;;;;;;5.97;3.90;;;;;;;17.79;71.80;98444.09;5091143;28;20460;-77
2021/06/16 05:52:22;;;;;;;6.32;3.10;;;;;;;17.82;71.62;98440.72;5091075;28;20077;-77
2021/06/16 05:54:47;;;;;;;3.30;2.67;;;;;;;17.81;71.59;98446.44;5090725;28;20111;-75
2021/06/16 05:57:13;;;;;;;3.95;2.55;;;;;;;17.83;71.61;98444.19;5073123;28;20085;-76
2021/06/16 05:59:38;;;;;;;4.35;2.35;;;;;;;17.84;71.87;98438.44;5090746;28;20028;-75
2021/06/16 06:02:03;;;;;;;3.40;2.65;;;;;;;17.88;71.65;98438.56;5091283;28;20024;-75
2021/06/16 06:04:29;;;;;;;3.08;2.45;;;;;;;17.96;71.40;98443.09;5090905;28;20031;-75
2021/06/16 06:06:54;;;;;;;3.28;2.22;;;;;;;18.00;71.56;98438.56;5090583;28;20024;-77
2021/06/16 06:09:20;;;;;;;2.40;2.20;;;;;;;18.06;71.30;98453.44;5091129;28;20110;-78
2021/06/16 06:11:45;;;;;;;3.05;2.22;;;;;;;18.10;71.38;98445.44;5090892;28;20028;-77
2021/06/16 06:14:10;;;;;;;2.47;2.28;;;;;;;18.18;71.26;98451.84;5090772;28;20028;-76
2021/06/16 06:16:36;;;;;;;3.88;3.25;;;;;;;18.21;71.50;98449.25;5090639;28;20028;-76
2021/06/16 06:19:02;;;;;;;2.00;1.90;;;;;;;18.29;71.17;98449.47;5091130;28;20398;-78
2021/06/16 06:21:30;;;;;;;2.88;2.47;;;;;;;18.36;70.19;98453.16;5090830;28;20039;-78
2021/06/16 06:23:58;;;;;;;9.75;2.58;;;;;;;18.48;70.70;98454.25;5090678;28;20142;-76
2021/06/16 06:26:24;;;;;;;3.13;2.78;;;;;;;18.56;70.78;98447.91;5090802;28;20169;-76
2021/06/16 06:28:49;;;;;;;5.13;2.53;;;;;;;18.67;70.43;98448.22;5090621;28;20115;-76
2021/06/16 06:31:14;;;;;;;3.10;2.63;;;;;;;18.84;70.41;98458.75;5090697;28;20516;-76
2021/06/16 06:33:40;;;;;;;2.72;2.30;;;;;;;19.09;69.66;98455.97;5090517;28;20515;-76
2021/06/16 06:36:05;;;;;;;2.75;2.55;;;;;;;19.41;69.50;98458.72;5090416;28;20035;-76
2021/06/16 06:38:30;;;;;;;4.38;2.47;;;;;;;19.76;67.06;98462.63;5090913;28;20028;-76
2021/06/16 06:40:56;;;;;;;4.65;2.63;;;;;;;20.06;65.94;98468.38;5072665;28;20025;-76
2021/06/16 06:43:21;;;;;;;3.35;2.40;;;;;;;20.25;64.96;98466.84;5091322;28;20035;-77
2021/06/16 06:45:47;;;;;;;4.32;2.85;;;;;;;20.39;64.48;98471.81;5094485;28;20526;-76
2021/06/16 06:48:12;;;;;;;3.80;2.70;;;;;;;20.50;64.06;98478.25;5094737;28;20028;-76
2021/06/16 06:50:38;;;;;;;2.25;2.10;;;;;;;20.60;63.91;98472.28;5094447;28;20028;-76
2021/06/16 06:53:03;;;;;;;5.82;2.25;;;;;;;20.67;63.78;98468.13;5076364;28;20040;-77
2021/06/16 06:55:29;;;;;;;7.47;2.40;;;;;;;20.67;63.38;98474.31;5094687;28;20051;-77
2021/06/16 06:57:55;;;;;;;6.68;2.05;;;;;;;20.64;62.34;98473.13;5094659;28;20531;-77
2021/06/16 07:00:20;;;;;;;3.13;1.88;;;;;;;20.60;62.65;98476.91;5094676;28;20062;-77
2021/06/16 07:02:47;;;;;;;2.20;1.90;;;;;;;20.52;63.00;98478.69;5094011;28;20028;-77
2021/06/16 07:05:13;;;;;;;3.42;1.73;;;;;;;20.40;63.36;98473.41;5094863;28;20104;-77
2021/06/16 07:07:39;;;;;;;5.38;2.20;;;;;;;20.31;63.78;98479.00;5094048;28;20101;-77
2021/06/16 07:10:05;;;;;;;4.82;2.90;;;;;;;20.21;64.39;98480.34;5076055;28;20478;-77
2021/06/16 07:12:31;;;;;;;2.42;2.22;;;;;;;20.14;64.59;98482.91;5075984;28;20024;-76
2021/06/16 07:14:56;;;;;;;3.00;1.90;;;;;;;20.05;65.18;98487.75;5094043;28;20493;-77
2021/06/16 07:17:22;;;;;;;3.75;2.13;;;;;;;19.97;65.25;98486.81;5094173;28;20024;-77
2021/06/16 07:19:48;;;;;;;2.45;2.25;;;;;;;19.91;65.52;98486.28;5093848;28;20027;-77
2021/06/16 07:22:14;;;;;;;1.98;1.88;;;;;;;19.86;65.92;98491.97;5094285;28;20031;-77
2021/06/16 07:24:39;;;;;;;3.17;1.83;;;;;;;19.82;65.64;98491.06;5093593;28;20052;-76
2021/06/16 07:27:05;;;;;;;4.13;2.22;;;;;;;19.75;65.60;98494.41;5093698;28;20115;-76
2021/06/16 07:29:31;;;;;;;2.53;2.15;;;;;;;19.74;65.87;98492.81;5093750;28;20035;-77
2021/06/16 07:31:56;;;;;;;2.95;2.00;;;;;;;19.73;66.05;98499.38;5075724;28;20036;-77
2021/06/16 07:34:21;;;;;;;5.93;2.40;;;;;;;19.74;66.89;98495.53;5093877;28;20035;-76
2021/06/16 07:36:47;;;;;;;8.38;2.75;;;;;;;19.77;66.41;98500.25;5093752;28;20031;-77
2021/06/16 07:39:12;;;;;;;4.75;2.15;;;;;;;19.79;66.73;98500.69;5093412;28;20032;-77
2021/06/16 07:41:38;;;;;;;4.90;2.50;;;;;;;19.82;66.28;98499.19;5093611;28;20023;-77
2021/06/16 07:44:04;;;;;;;2.63;2.42;;;;;;;19.81;66.34;98500.34;5093390;28;20055;-76
2021/06/16 07:46:29;;;;;;;5.18;2.65;;;;;;;19.90;65.96;98511.06;5093546;28;20475;-77
2021/06/16 07:48:55;;;;;;;5.68;2.33;;;;;;;19.92;66.02;98503.34;5093297;28;20052;-77
2021/06/16 07:51:20;;;;;;;4.07;2.35;;;;;;;19.97;65.49;98501.16;5093651;28;20078;-76
2021/06/16 07:53:47;;;;;;;3.90;2.40;;;;;;;20.08;65.49;98508.75;5093482;28;20386;-77
2021/06/16 07:56:12;;;;;;;2.15;1.92;;;;;;;20.16;65.50;98521.34;5093482;28;20035;-77
2021/06/16 07:58:38;;;;;;;5.20;3.55;;;;;;;20.26;65.56;98520.81;5093399;28;20036;-77
2021/06/16 08:01:03;;;;;;;3.97;3.28;;;;;;;20.31;64.74;98508.88;5093569;28;20020;-77
2021/06/16 08:03:29;;;;;;;4.07;2.95;;;;;;;20.48;64.98;98523.97;5093320;28;20035;-77
2021/06/16 08:05:55;;;;;;;3.13;2.08;;;;;;;20.57;64.93;98526.53;5093095;28;20418;-77
2021/06/16 08:08:21;;;;;;;2.95;2.08;;;;;;;20.69;65.00;98528.31;5093219;28;20062;-77
2021/06/16 08:10:46;;;;;;;2.85;2.65;;;;;;;20.75;64.75;98535.84;5092635;28;20023;-77
2021/06/16 08:13:12;;;;;;;3.30;2.63;;;;;;;20.84;64.56;98532.16;5093420;28;20490;-77
2021/06/16 08:15:37;;;;;;;5.95;2.63;;;;;;;20.91;64.59;98532.28;5092837;28;20020;-77
2021/06/16 08:18:03;;;;;;;3.72;2.45;;;;;;;20.98;64.81;98526.97;5093106;28;20122;-77
2021/06/16 08:20:29;;;;;;;2.58;2.38;;;;;;;21.04;64.94;98524.75;5093037;28;20028;-77
2021/06/16 08:22:55;;;;;;;4.38;2.13;;;;;;;21.09;64.62;98529.91;5092495;28;20055;-77
2021/06/16 08:25:21;;;;;;;3.47;2.30;;;;;;;21.10;64.17;98531.47;5092335;28;20040;-77
2021/06/16 08:27:46;;;;;;;3.95;2.45;;;;;;;21.11;64.63;98527.63;5092630;28;20023;-77
2021/06/16 08:30:13;;;;;;;3.15;2.95;;;;;;;21.15;64.40;98544.00;5092817;28;20027;-77
2021/06/16 08:32:40;;;;;;;4.75;2.65;;;;;;;21.15;62.98;98544.78;5092411;28;20029;-77
2021/06/16 08:35:06;;;;;;;2.08;1.88;;;;;;;21.12;63.51;98556.38;5092731;28;20031;-77
2021/06/16 08:37:32;;;;;;;4.07;2.33;;;;;;;21.08;63.57;98547.34;5092231;28;20028;-77
2021/06/16 08:39:57;;;;;;;2.88;2.65;;;;;;;21.07;63.91;98554.75;5092554;28;20036;-77
2021/06/16 08:42:25;;;;;;;2.75;2.33;;;;;;;21.06;64.64;98555.09;5092589;28;20035;-77
2021/06/16 08:44:53;;;;;;;5.88;2.45;;;;;;;21.04;64.71;98555.44;5092329;28;20039;-77
2021/06/16 08:47:20;;;;;;;4.15;2.20;;;;;;;21.03;64.43;98561.25;5092381;28;20031;-77
2021/06/16 08:49:46;;;;;;;2.63;2.42;;;;;;;21.00;63.47;98561.97;5092039;28;20038;-77
2021/06/16 08:52:11;;;;;;;6.55;2.55;;;;;;;20.94;63.25;98559.53;5074000;28;20410;-77
2021/06/16 08:54:37;;;;;;;3.95;2.28;;;;;;;20.90;63.49;98566.06;5092155;28;20028;-77
2021/06/16 08:57:03;;;;;;;2.80;2.47;;;;;;;20.85;63.05;98569.84;5092353;28;20024;-77
2021/06/16 08:59:28;;;;;;;7.03;2.97;;;;;;;20.81;63.73;98568.19;5092296;28;20031;-77
2021/06/16 09:01:54;;;;;;;2.40;1.85;;;;;;;20.74;63.89;98566.88;5091903;28;20540;-77
2021/06/16 09:04:49;;;;;;;3.83;2.50;;;;;;;20.66;64.07;98564.34;5092378;28;20032;-77
2021/06/16 09:07:19;;;;;;;10.02;3.00;;;;;;;20.62;64.29;98575.13;5088505;28;20063;-77
2021/06/16 09:09:47;;;;;;;4.95;2.97;;;;;;;20.57;64.41;98573.47;5091833;28;20028;-77
2021/06/16 09:12:18;;;;;;;5.77;3.30;;;;;;;20.51;64.67;98576.81;5091794;28;20503;-77
2021/06/16 09:14:53;;;;;;;2.95;2.65;;;;;;;20.44;65.32;98588.31;5091690;28;20304;-76
2021/06/16 09:17:21;;;;;;;8.13;4.90;;;;;;;20.37;66.51;98596.28;5091846;28;20028;-76
2021/06/16 09:19:52;;;;;;;11.13;7.25;;;;;;;20.29;67.20;98585.25;5091386;28;20476;-76
2021/06/16 09:22:17;;;;;;;5.93;4.00;;;;;;;20.28;67.50;98591.06;5073701;28;20035;-76
2021/06/16 09:24:50;;;;;;;4.65;2.85;;;;;;;20.20;67.58;98590.09;5091481;28;20044;-77
2021/06/16 09:27:49;;;;;;;3.58;2.90;;;;;;;20.19;68.37;98599.38;5091662;28;20415;-76
2021/06/16 09:30:23;;;;;;;4.45;3.10;;;;;;;20.19;68.81;98610.25;5047028;28;20044;-76
2021/06/16 09:32:58;;;;;;;3.75;2.80;;;;;;;20.15;68.55;98598.50;5091552;28;20077;-76
2021/06/16 09:35:27;;;;;;;4.03;2.50;;;;;;;20.11;68.48;98605.78;5091608;28;20456;-76
2021/06/16 09:37:53;;;;;;;3.10;2.83;;;;;;;20.13;68.72;98609.72;5073203;28;20386;-76
2021/06/16 09:40:33;;;;;;;5.25;3.33;;;;;;;20.11;69.32;98613.91;5091518;28;20028;-76
2021/06/16 09:43:07;;;;;;;2.72;2.53;;;;;;;20.09;69.64;98614.28;5072907;28;20090;-76
2021/06/16 09:45:37;;;;;;;3.25;2.60;;;;;;;20.04;69.59;98609.09;5091469;28;20040;-76
2021/06/16 09:48:23;;;;;;;2.55;2.35;;;;;;;19.98;69.50;98613.19;5091385;28;20032;-76
2021/06/16 09:50:51;;;;;;;4.00;2.58;;;;;;;19.94;68.73;98615.03;5076325;28;20435;-76
2021/06/16 09:53:17;;;;;;;2.20;2.10;;;;;;;19.88;68.26;98613.72;5091249;28;20051;-76
2021/06/16 09:55:42;;;;;;;2.20;2.00;;;;;;;19.87;67.88;98623.78;5091183;28;20463;-76
2021/06/16 09:58:16;;;;;;;2.20;2.00;;;;;;;19.86;67.58;98633.09;5091012;28;20543;-76
2021/06/16 10:00:46;;;;;;;1.50;1.40;;;;;;;19.86;67.22;98641.22;5090634;28;20475;-76
2021/06/16 10:03:13;;;;;;;4.53;3.03;;;;;;;19.90;67.42;98639.38;5090863;28;20475;-76
2021/06/16 10:06:06;;;;;;;1.60;1.50;;;;;;;19.88;66.64;98635.44;5090989;28;20028;-77
2021/06/16 10:08:34;;;;;;;2.30;2.10;;;;;;;19.86;66.28;98632.28;5091111;28;20024;-76
2021/06/16 10:10:59;;;;;;;1.67;1.58;;;;;;;19.88;66.30;98640.88;5090878;28;20399;-76
2021/06/16 10:13:26;;;;;;;2.22;1.65;;;;;;;19.88;65.76;98646.28;5091071;28;20028;-76
2021/06/16 10:15:55;;;;;;;1.50;1.40;;;;;;;19.86;65.79;98643.94;5090873;28;20036;-76
2021/06/16 10:18:22;;;;;;;2.50;1.40;;;;;;;19.88;65.72;98636.22;5091509;28;20027;-77
2021/06/16 10:20:49;;;;;;;2.05;1.40;;;;;;;19.89;65.86;98626.94;5095086;28;20032;-77
2021/06/16 10:23:15;;;;;;;1.52;1.40;;;;;;;19.92;65.13;98639.81;5095111;28;20107;-76
2021/06/16 10:25:40;;;;;;;2.67;1.50;;;;;;;19.91;65.67;98635.53;5095007;28;20055;-76
2021/06/16 10:28:08;;;;;;;1.88;1.67;;;;;;;19.94;65.27;98628.63;5095051;28;20105;-76
2021/06/16 10:30:38;;;;;;;1.80;1.33;;;;;;;19.96;65.11;98629.06;5095123;28;20028;-76
2021/06/16 10:33:30;;;;;;;2.03;1.80;;;;;;;19.96;64.80;98632.56;5095071;28;20032;-76
2021/06/16 10:36:10;;;;;;;4.80;1.95;;;;;;;19.97;65.16;98636.06;5094864;28;20397;-76
2021/06/16 10:38:36;;;;;;;2.80;2.13;;;;;;;20.00;65.20;98638.84;5095000;28;20391;-76
2021/06/16 10:41:02;;;;;;;3.88;1.90;;;;;;;20.03;65.33;98642.00;5094747;28;20028;-76
2021/06/16 10:43:29;;;;;;;6.72;3.20;;;;;;;20.10;65.66;98656.56;5094510;28;20513;-76
2021/06/16 10:46:05;;;;;;;19.00;7.32;;;;;;;20.12;65.57;98654.28;5094298;28;20482;-76
2021/06/16 10:48:56;;;;;;;10.95;4.05;;;;;;;20.18;65.92;98643.16;5094741;28;20020;-76
2021/06/16 10:51:39;;;;;;;1.73;1.63;;;;;;;20.22;66.43;98642.09;5094664;28;20547;-77
2021/06/16 10:54:16;;;;;;;2.50;1.80;;;;;;;20.27;66.46;98644.56;5094508;28;20016;-76
2021/06/16 10:56:57;;;;;;;4.55;1.88;;;;;;;20.35;66.38;98650.16;5094557;28;20081;-77
2021/06/16 10:59:44;;;;;;;2.50;2.08;;;;;;;20.45;66.06;98641.50;5094692;28;20096;-77
2021/06/16 11:02:14;;;;;;;3.22;2.25;;;;;;;20.55;66.21;98643.66;5076417;28;20042;-77
2021/06/16 11:04:41;;;;;;;2.20;2.00;;;;;;;20.63;66.02;98644.63;5094414;28;20080;-77
2021/06/16 11:07:32;;;;;;;2.90;1.93;;;;;;;20.79;66.12;98637.25;5094451;28;20364;-77
2021/06/16 11:10:03;;;;;;;6.00;2.08;;;;;;;20.87;65.51;98631.97;5094685;28;20507;-77
2021/06/16 11:12:40;;;;;;;3.20;1.85;;;;;;;20.94;65.48;98632.13;5094376;28;20054;-77
2021/06/16 11:15:11;;;;;;;2.40;2.15;;;;;;;21.01;64.67;98635.00;5094296;28;20494;-76
2021/06/16 11:17:38;;;;;;;4.00;1.65;;;;;;;21.05;64.51;98633.13;5094034;28;20107;-78
2021/06/16 11:20:10;;;;;;;9.10;4.63;;;;;;;21.12;64.36;98632.50;5093939;28;20032;-76
2021/06/16 11:22:59;;;;;;;4.32;2.88;;;;;;;21.16;64.62;98625.22;5076003;28;20327;-76
2021/06/16 11:25:28;;;;;;;4.75;3.53;;;;;;;21.24;64.75;98634.31;5094321;28;20097;-76
2021/06/16 11:28:17;;;;;;;4.43;1.92;;;;;;;21.31;64.92;98628.22;5093901;28;20056;-76
2021/06/16 11:30:48;;;;;;;1.88;1.77;;;;;;;21.37;65.24;98630.31;5093615;28;20031;-76
2021/06/16 11:33:16;;;;;;;2.78;2.40;;;;;;;21.38;64.26;98631.09;5094122;28;20020;-76
2021/06/16 11:35:45;;;;;;;4.65;3.40;;;;;;;21.39;63.03;98624.50;5093961;28;20028;-77
2021/06/16 11:38:16;;;;;;;3.13;2.63;;;;;;;21.41;64.09;98630.34;5093924;28;20218;-75
2021/06/16 11:40:59;;;;;;;2.22;1.67;;;;;;;21.41;64.39;98622.19;5094131;28;20039;-76